Time;durP1;ratioP1;P1;durP2;ratioP2;P2;SDS_P1;SDS_P2;PMS_P1;PMS_P2;Temp;Humidity;BMP_temperature;BMP_pressure;BME280_temperature;BME280_humidity;BME280_pressure;Samples;Min_cycle;Max_cycle;Signal;HPM_P1;HPM_P2
2022/09/10 00:00:53;;;;;;;3.10;1.40;;;17.40;1.00;;;;;;4973883;28;20512;-63
2022/09/10 00:03:20;;;;;;;2.73;1.67;;;17.40;1.00;;;;;;4973580;28;20456;-64
2022/09/10 00:05:45;;;;;;;3.97;1.63;;;17.40;1.00;;;;;;4988374;28;20785;-62
2022/09/10 00:08:12;;;;;;;4.17;1.20;;;17.40;1.00;;;;;;4972867;28;20448;-64
2022/09/10 00:10:43;;;;;;;3.90;1.50;;;17.40;1.00;;;;;;4973170;28;20268;-63
2022/09/10 00:13:09;;;;;;;3.90;1.50;;;17.40;1.00;;;;;;4973777;28;20547;-63
2022/09/10 00:15:47;;;;;;;28.03;3.00;;;17.50;1.00;;;;;;4973484;28;20437;-62
2022/09/10 00:18:15;;;;;;;8.87;2.20;;;17.50;1.00;;;;;;4972571;28;20527;-63
2022/09/10 00:20:49;;;;;;;4.03;1.87;;;17.40;1.00;;;;;;4973316;28;20766;-63
2022/09/10 00:23:17;;;;;;;3.07;1.50;;;17.40;1.00;;;;;;4973470;28;20428;-64
2022/09/10 00:25:47;;;;;;;2.70;1.03;;;17.40;1.00;;;;;;4972966;28;20513;-64
2022/09/10 00:28:14;;;;;;;7.30;1.70;;;17.30;1.00;;;;;;4972372;28;20451;-64
2022/09/10 00:30:52;;;;;;;2.50;1.37;;;17.20;1.00;;;;;;4973156;28;20783;-64
2022/09/10 00:33:19;;;;;;;3.97;1.87;;;17.30;1.00;;;;;;4973403;28;20543;-64
2022/09/10 00:35:45;;;;;;;8.63;1.63;;;17.30;1.00;;;;;;4973124;28;20416;-64
2022/09/10 00:38:13;;;;;;;1.93;1.30;;;17.30;1.00;;;;;;4971909;28;20453;-64
2022/09/10 00:40:40;;;;;;;4.03;1.60;;;17.20;7.30;;;;;;4972799;28;20436;-64
2022/09/10 00:43:23;;;;;;;6.77;1.37;;;17.20;10.00;;;;;;4972948;28;20500;-64
2022/09/10 00:45:51;;;;;;;3.60;1.63;;;17.20;1.00;;;;;;4972659;28;20886;-64
2022/09/10 00:48:30;;;;;;;8.70;2.07;;;17.20;19.00;;;;;;4972115;28;20425;-63
2022/09/10 00:50:57;;;;;;;3.80;2.27;;;17.20;35.90;;;;;;4972887;28;20861;-64
2022/09/10 00:53:26;;;;;;;5.43;2.80;;;17.00;99.90;;;;;;4972708;28;20461;-64
2022/09/10 00:55:55;;;;;;;6.00;2.23;;;17.10;99.90;;;;;;4972488;28;20405;-64
2022/09/10 00:58:23;;;;;;;2.87;1.33;;;17.10;99.90;;;;;;4971832;28;20425;-64
2022/09/10 01:00:52;;;;;;;2.20;1.60;;;17.20;90.50;;;;;;4990870;28;20772;-63
2022/09/10 01:03:19;;;;;;;2.80;1.57;;;17.10;99.90;;;;;;4991972;28;20436;-64
2022/09/10 01:05:47;;;;;;;2.07;1.37;;;17.10;99.90;;;;;;4991708;28;20420;-64
2022/09/10 01:08:14;;;;;;;6.93;1.63;;;17.10;99.90;;;;;;4990888;28;20432;-63
2022/09/10 01:11:00;;;;;;;3.77;1.67;;;17.00;99.90;;;;;;4991389;28;20477;-65
2022/09/10 01:13:56;;;;;;;1.97;1.40;;;17.10;99.90;;;;;;4991879;28;21038;-64
2022/09/10 01:16:49;;;;;;;3.70;1.80;;;17.20;99.90;;;;;;4991948;28;20412;-64
2022/09/10 01:19:33;;;;;;;2.17;1.43;;;17.20;46.80;;;;;;4991066;28;20456;-63
2022/09/10 01:22:19;;;;;;;4.97;1.83;;;17.20;75.00;;;;;;4991873;28;20527;-64
2022/09/10 01:25:09;;;;;;;9.00;2.60;;;17.20;99.90;;;;;;4991117;28;20411;-64
2022/09/10 01:27:48;;;;;;;2.87;1.40;;;17.20;99.90;;;;;;4991036;28;20419;-64
2022/09/10 01:30:19;;;;;;;1.90;1.37;;;17.20;99.90;;;;;;4991147;28;20412;-63
2022/09/10 01:33:09;;;;;;;6.17;2.07;;;17.20;99.90;;;;;;4991983;28;20548;-64
2022/09/10 01:36:08;;;;;;;7.27;2.40;;;17.10;99.90;;;;;;4991839;28;20405;-63
2022/09/10 01:38:37;;;;;;;2.60;1.53;;;17.10;99.90;;;;;;4989887;28;20793;-62
2022/09/10 01:41:03;;;;;;;5.40;1.80;;;17.10;99.90;;;;;;4991144;28;20423;-62
2022/09/10 01:43:29;;;;;;;6.77;2.27;;;17.10;99.90;;;;;;4991267;28;20450;-63
2022/09/10 01:46:13;;;;;;;7.00;2.40;;;17.10;99.90;;;;;;4990936;28;20620;-63
2022/09/10 01:49:10;;;;;;;5.90;1.60;;;17.20;99.90;;;;;;4990183;28;20434;-61
2022/09/10 01:52:24;;;;;;;3.10;1.60;;;17.20;99.90;;;;;;4991080;28;20404;-63
2022/09/10 01:54:55;;;;;;;5.47;1.67;;;17.20;99.90;;;;;;4982340;28;20475;-61
2022/09/10 01:57:54;;;;;;;6.47;2.30;;;17.20;99.90;;;;;;4990394;28;20451;-63
2022/09/10 02:00:21;;;;;;;8.40;1.90;;;17.10;99.90;;;;;;4990314;28;20420;-63
2022/09/10 02:03:18;;;;;;;7.03;2.70;;;17.10;99.90;;;;;;4990986;28;20470;-62
2022/09/10 02:05:48;;;;;;;4.13;1.77;;;17.10;99.90;;;;;;4982797;28;20854;-63
2022/09/10 02:08:32;;;;;;;2.43;1.90;;;17.10;99.90;;;;;;4988727;28;20440;-62
2022/09/10 02:11:06;;;;;;;9.67;2.23;;;17.10;99.90;;;;;;4990307;28;20962;-63
2022/09/10 02:13:33;;;;;;;2.03;1.70;;;17.00;99.90;;;;;;4989333;28;20462;-63
2022/09/10 02:16:02;;;;;;;3.57;1.80;;;16.90;99.90;;;;;;4991019;28;20485;-61
2022/09/10 02:18:30;;;;;;;5.63;2.07;;;16.90;1.00;;;;;;4989745;28;20768;-61
2022/09/10 02:20:56;;;;;;;5.70;1.87;;;16.90;99.90;;;;;;4990595;28;20736;-63
2022/09/10 02:23:30;;;;;;;6.10;1.90;;;16.90;99.90;;;;;;4990919;28;20408;-63
2022/09/10 02:25:56;;;;;;;3.40;1.90;;;17.00;99.90;;;;;;4990589;28;20972;-63
2022/09/10 02:28:22;;;;;;;4.40;1.57;;;16.90;99.90;;;;;;4989623;28;20522;-63
2022/09/10 02:30:47;;;;;;;5.80;1.80;;;17.00;99.90;;;;;;4990680;28;20498;-63
2022/09/10 02:33:15;;;;;;;4.63;1.50;;;17.00;99.90;;;;;;4990448;28;20193;-63
2022/09/10 02:35:41;;;;;;;9.13;1.93;;;17.00;99.90;;;;;;4990505;28;21346;-64
2022/09/10 02:38:08;;;;;;;3.93;2.40;;;17.00;99.90;;;;;;4989636;28;20459;-65
2022/09/10 02:40:33;;;;;;;4.80;1.80;;;16.90;99.90;;;;;;4990561;28;20416;-64
2022/09/10 02:42:59;;;;;;;8.17;1.90;;;16.90;1.00;;;;;;4991024;28;20408;-64
2022/09/10 02:45:25;;;;;;;4.90;1.80;;;16.90;1.00;;;;;;4990846;28;20161;-64
2022/09/10 02:47:51;;;;;;;2.40;1.37;;;16.90;1.00;;;;;;4990436;28;20264;-65
2022/09/10 02:50:17;;;;;;;2.57;1.23;;;16.90;1.00;;;;;;4990608;28;20475;-65
2022/09/10 02:52:46;;;;;;;4.70;1.80;;;17.00;1.00;;;;;;4989542;28;20173;-65
2022/09/10 02:55:12;;;;;;;3.07;1.80;;;16.90;1.00;;;;;;4990757;28;20909;-64
2022/09/10 02:57:38;;;;;;;4.30;1.90;;;16.90;1.00;;;;;;4991236;28;20526;-64
2022/09/10 03:00:06;;;;;;;3.37;1.40;;;16.90;1.00;;;;;;4994973;28;20458;-64
2022/09/10 03:02:32;;;;;;;3.53;1.50;;;16.90;1.00;;;;;;4994948;28;20743;-64
2022/09/10 03:04:58;;;;;;;4.50;1.57;;;17.00;1.00;;;;;;4994482;28;20404;-64
2022/09/10 03:07:23;;;;;;;5.60;2.20;;;17.00;1.00;;;;;;4994127;28;20655;-64
2022/09/10 03:09:49;;;;;;;3.60;1.60;;;16.90;1.00;;;;;;4994136;28;20188;-63
2022/09/10 03:12:15;;;;;;;5.53;1.77;;;16.90;1.00;;;;;;4994105;28;20791;-65
2022/09/10 03:14:42;;;;;;;4.43;2.00;;;16.90;1.00;;;;;;4993830;28;20340;-65
2022/09/10 03:17:08;;;;;;;3.37;1.63;;;16.90;1.00;;;;;;4993389;28;20213;-65
2022/09/10 03:19:34;;;;;;;3.73;3.13;;;16.80;1.00;;;;;;4993573;28;20434;-65
2022/09/10 03:22:00;;;;;;;5.13;1.63;;;16.80;1.00;;;;;;4994016;28;20400;-65
2022/09/10 03:24:27;;;;;;;5.13;2.30;;;16.70;1.00;;;;;;4993347;28;20418;-65
2022/09/10 03:26:53;;;;;;;3.23;1.30;;;16.70;1.00;;;;;;4993613;28;20220;-65
2022/09/10 03:29:19;;;;;;;3.17;2.10;;;16.70;53.70;;;;;;4993041;28;20478;-65
2022/09/10 03:31:45;;;;;;;12.73;2.57;;;16.70;99.90;;;;;;4993977;28;20587;-65
2022/09/10 03:34:11;;;;;;;2.70;1.33;;;16.70;1.00;;;;;;4993668;28;20627;-65
2022/09/10 03:36:38;;;;;;;3.50;1.87;;;16.70;1.00;;;;;;4993903;28;20533;-65
2022/09/10 03:39:03;;;;;;;2.20;1.40;;;16.60;1.00;;;;;;4992314;28;20473;-65
2022/09/10 03:41:30;;;;;;;1.70;1.37;;;16.60;99.90;;;;;;4993709;28;20574;-64
2022/09/10 03:43:56;;;;;;;3.20;1.63;;;16.60;1.00;;;;;;4993735;28;20180;-65
2022/09/10 03:46:25;;;;;;;3.33;1.80;;;16.50;99.90;;;;;;4993705;28;20944;-65
2022/09/10 03:48:51;;;;;;;5.03;1.53;;;16.40;99.90;;;;;;4992425;28;20432;-65
2022/09/10 03:51:17;;;;;;;5.60;1.73;;;16.30;55.60;;;;;;4993754;28;20412;-65
2022/09/10 03:53:43;;;;;;;6.53;1.63;;;16.40;99.90;;;;;;4993278;28;20517;-65
2022/09/10 03:56:10;;;;;;;5.67;1.80;;;16.50;1.00;;;;;;4993117;28;20180;-65
2022/09/10 03:58:36;;;;;;;3.57;1.80;;;16.50;1.00;;;;;;4991289;28;20193;-65
2022/09/10 04:01:02;;;;;;;4.53;1.40;;;16.40;1.00;;;;;;4993266;28;20426;-65
2022/09/10 04:03:28;;;;;;;6.23;1.97;;;16.20;1.00;;;;;;4993000;28;20423;-65
2022/09/10 04:05:54;;;;;;;4.97;1.50;;;16.20;99.90;;;;;;4993227;28;20435;-65
2022/09/10 04:08:20;;;;;;;17.90;4.20;;;16.30;1.00;;;;;;4991768;28;20185;-65
2022/09/10 04:10:47;;;;;;;20.73;2.90;;;16.40;1.00;;;;;;5002924;28;20425;-65
2022/09/10 04:13:13;;;;;;;4.33;2.10;;;16.40;99.90;;;;;;4992742;28;20526;-65
2022/09/10 04:15:40;;;;;;;8.27;1.83;;;16.50;1.00;;;;;;5000620;28;20497;-65
2022/09/10 04:18:06;;;;;;;12.40;2.37;;;16.40;1.00;;;;;;4999749;28;20450;-65
2022/09/10 04:20:33;;;;;;;3.70;1.77;;;16.30;1.00;;;;;;4995625;28;20416;-65
2022/09/10 04:22:59;;;;;;;5.73;2.30;;;16.20;1.00;;;;;;4999988;28;20439;-64
2022/09/10 04:25:25;;;;;;;11.27;1.80;;;16.40;1.00;;;;;;4997950;28;20495;-65
2022/09/10 04:27:50;;;;;;;19.43;2.50;;;16.40;1.00;;;;;;5001286;28;20515;-65
2022/09/10 04:30:17;;;;;;;5.47;2.43;;;16.40;1.00;;;;;;5002125;28;20426;-65
2022/09/10 04:32:44;;;;;;;4.70;1.40;;;16.40;1.00;;;;;;5006835;28;20191;-65
2022/09/10 04:35:10;;;;;;;6.50;2.10;;;16.30;1.00;;;;;;5008048;28;20493;-65
2022/09/10 04:37:36;;;;;;;16.47;2.90;;;16.00;99.90;;;;;;4992514;28;20430;-64
2022/09/10 04:40:02;;;;;;;11.63;2.20;;;16.10;18.60;;;;;;4998767;28;20437;-64
2022/09/10 04:42:30;;;;;;;7.40;2.00;;;16.20;1.00;;;;;;5002885;28;20271;-65
2022/09/10 04:44:56;;;;;;;8.50;2.30;;;16.20;1.00;;;;;;4992505;28;20892;-65
2022/09/10 04:47:22;;;;;;;6.43;2.30;;;16.30;1.00;;;;;;5001010;28;20451;-64
2022/09/10 04:49:48;;;;;;;17.30;4.20;;;16.40;1.00;;;;;;4991902;28;20428;-65
2022/09/10 04:52:16;;;;;;;21.53;3.23;;;16.30;99.90;;;;;;4992452;28;20173;-66
2022/09/10 04:54:42;;;;;;;6.33;2.00;;;16.20;99.90;;;;;;4991579;28;20192;-66
2022/09/10 04:57:07;;;;;;;5.40;1.50;;;16.30;99.90;;;;;;4991846;28;20542;-65
2022/09/10 04:59:33;;;;;;;17.47;2.10;;;16.20;99.90;;;;;;4991557;28;20436;-65
2022/09/10 05:02:00;;;;;;;23.23;2.93;;;16.20;99.90;;;;;;4991839;28;20173;-65
2022/09/10 05:04:26;;;;;;;13.33;2.43;;;16.10;99.90;;;;;;4990954;28;20189;-65
2022/09/10 05:06:52;;;;;;;18.90;2.60;;;16.10;1.00;;;;;;4991061;28;20444;-64
2022/09/10 05:09:19;;;;;;;12.20;3.00;;;16.00;1.00;;;;;;4990695;28;20650;-65
2022/09/10 05:11:48;;;;;;;12.83;2.17;;;16.00;1.00;;;;;;4992073;28;20183;-65
2022/09/10 05:14:15;;;;;;;6.40;1.70;;;16.10;1.00;;;;;;4991887;28;20456;-65
2022/09/10 05:16:42;;;;;;;15.30;2.37;;;16.10;99.90;;;;;;4992169;28;20801;-65
2022/09/10 05:19:07;;;;;;;21.17;3.80;;;16.10;59.70;;;;;;4990695;28;20427;-64
2022/09/10 05:21:33;;;;;;;21.80;3.03;;;16.10;39.10;;;;;;4991082;28;20411;-65
2022/09/10 05:23:59;;;;;;;5.80;1.50;;;16.20;1.00;;;;;;4991197;28;20177;-65
2022/09/10 05:26:26;;;;;;;14.33;2.13;;;16.10;1.00;;;;;;4990626;28;20184;-64
2022/09/10 05:28:52;;;;;;;9.60;2.23;;;16.10;99.90;;;;;;4990311;28;20205;-65
2022/09/10 05:31:18;;;;;;;5.30;1.60;;;16.10;50.80;;;;;;4991688;28;20419;-65
2022/09/10 05:33:45;;;;;;;22.23;3.17;;;16.20;82.30;;;;;;4991553;28;20216;-65
2022/09/10 05:36:11;;;;;;;21.10;3.53;;;16.10;1.00;;;;;;4991661;28;20503;-64
2022/09/10 05:38:37;;;;;;;9.00;2.50;;;16.10;99.90;;;;;;4990505;28;20610;-65
2022/09/10 05:41:05;;;;;;;18.60;2.70;;;16.20;99.90;;;;;;4990876;28;20478;-65
2022/09/10 05:43:31;;;;;;;8.77;1.90;;;16.20;99.90;;;;;;4991354;28;20502;-65
2022/09/10 05:45:57;;;;;;;2.83;1.53;;;16.10;99.90;;;;;;4991332;28;20984;-64
2022/09/10 05:48:22;;;;;;;6.33;2.17;;;16.10;99.90;;;;;;4990502;28;20613;-66
2022/09/10 05:50:48;;;;;;;14.57;2.20;;;16.10;99.90;;;;;;4991218;28;20574;-66
2022/09/10 05:53:14;;;;;;;9.27;2.17;;;16.10;99.90;;;;;;4991323;28;20268;-64
2022/09/10 05:55:39;;;;;;;3.67;1.77;;;16.20;99.90;;;;;;4990207;28;20223;-64
2022/09/10 05:58:05;;;;;;;25.27;4.20;;;16.20;99.90;;;;;;4990413;28;20193;-65
2022/09/10 06:00:31;;;;;;;21.40;2.97;;;16.20;99.90;;;;;;4990353;28;20166;-64
2022/09/10 06:02:57;;;;;;;10.20;2.30;;;16.20;1.00;;;;;;4991032;28;20211;-65
2022/09/10 06:05:22;;;;;;;99.10;10.13;;;16.20;1.00;;;;;;4990841;28;20614;-64
2022/09/10 06:07:49;;;;;;;17.43;2.90;;;16.20;99.90;;;;;;4990529;28;20561;-65
2022/09/10 06:10:15;;;;;;;29.10;4.27;;;16.30;1.00;;;;;;4990090;28;20283;-65
2022/09/10 06:12:51;;;;;;;15.50;2.00;;;16.30;1.00;;;;;;4990833;28;20960;-65
2022/09/10 06:15:18;;;;;;;7.23;2.17;;;16.30;1.00;;;;;;4990868;28;20211;-66
2022/09/10 06:17:44;;;;;;;3.50;1.50;;;16.30;1.00;;;;;;4990408;28;20405;-65
2022/09/10 06:20:11;;;;;;;26.73;4.23;;;16.30;1.00;;;;;;4990319;28;20880;-65
2022/09/10 06:22:37;;;;;;;11.20;2.70;;;16.30;99.90;;;;;;4990907;28;20412;-66
2022/09/10 06:25:03;;;;;;;11.47;2.13;;;16.40;1.00;;;;;;4989769;28;20497;-66
2022/09/10 06:27:29;;;;;;;18.40;3.03;;;16.40;1.00;;;;;;4990126;28;20537;-65
2022/09/10 06:29:55;;;;;;;11.67;2.20;;;16.40;1.00;;;;;;4990153;28;20432;-65
2022/09/10 06:32:21;;;;;;;8.43;2.43;;;16.40;1.00;;;;;;4990446;28;20187;-67
2022/09/10 06:34:47;;;;;;;16.23;2.40;;;16.50;1.00;;;;;;4990392;28;21011;-65
2022/09/10 06:37:13;;;;;;;9.50;2.13;;;16.50;1.00;;;;;;4990174;28;20421;-64
2022/09/10 06:39:39;;;;;;;14.77;2.40;;;16.50;1.00;;;;;;4989152;28;20274;-65
2022/09/10 06:42:05;;;;;;;14.13;1.90;;;16.50;1.00;;;;;;4990653;28;20412;-65
2022/09/10 06:44:31;;;;;;;4.40;1.63;;;16.50;99.90;;;;;;4990139;28;20184;-66
2022/09/10 06:46:57;;;;;;;3.40;1.80;;;16.50;99.90;;;;;;4989999;28;20416;-66
2022/09/10 06:49:23;;;;;;;7.13;1.97;;;16.60;1.00;;;;;;4989695;28;20510;-67
2022/09/10 06:51:49;;;;;;;22.27;3.57;;;16.60;1.00;;;;;;4990612;28;20172;-64
2022/09/10 06:54:18;;;;;;;47.80;6.20;;;16.70;1.00;;;;;;4989644;28;20471;-65
2022/09/10 06:56:45;;;;;;;15.70;4.70;;;16.70;99.90;;;;;;4990483;28;20424;-65
2022/09/10 06:59:17;;;;;;;6.90;2.43;;;16.80;1.00;;;;;;4988843;28;20431;-64
2022/09/10 07:01:43;;;;;;;12.90;2.80;;;16.80;99.90;;;;;;4971661;28;20480;-66
2022/09/10 07:04:09;;;;;;;23.23;4.60;;;16.80;1.00;;;;;;4970797;28;20483;-66
2022/09/10 07:06:36;;;;;;;11.87;3.80;;;16.70;99.90;;;;;;4971342;28;20413;-66
2022/09/10 07:09:02;;;;;;;15.07;3.50;;;16.70;10.00;;;;;;4969725;28;20532;-66
2022/09/10 07:11:29;;;;;;;31.97;5.23;;;16.80;1.00;;;;;;4984383;28;20443;-64
2022/09/10 07:13:55;;;;;;;19.47;3.60;;;16.70;99.90;;;;;;4992124;28;20785;-65
2022/09/10 07:16:22;;;;;;;16.23;3.20;;;16.60;1.00;;;;;;4990129;28;20436;-64
2022/09/10 07:18:53;;;;;;;7.63;2.67;;;16.60;1.00;;;;;;4989870;28;20197;-65
2022/09/10 07:21:20;;;;;;;31.70;5.10;;;16.60;1.00;;;;;;4990821;28;20467;-65
2022/09/10 07:23:50;;;;;;;66.60;8.37;;;16.60;1.00;;;;;;4990325;28;20427;-65
2022/09/10 07:26:18;;;;;;;27.93;4.53;;;16.60;1.00;;;;;;4990334;28;20400;-65
2022/09/10 07:28:44;;;;;;;12.03;4.57;;;16.70;1.00;;;;;;4990316;28;20455;-66
2022/09/10 07:31:28;;;;;;;10.37;2.40;;;16.70;1.00;;;;;;4990608;28;20424;-66
2022/09/10 07:33:54;;;;;;;17.47;3.93;;;16.70;1.00;;;;;;4990317;28;20456;-66
2022/09/10 07:36:20;;;;;;;26.67;4.40;;;16.70;1.00;;;;;;4991904;28;20515;-66
2022/09/10 07:38:49;;;;;;;14.77;3.17;;;16.70;1.00;;;;;;4989420;28;20477;-66
2022/09/10 07:41:15;;;;;;;25.40;3.73;;;16.80;1.00;;;;;;4989059;28;20424;-65
2022/09/10 07:43:42;;;;;;;25.73;3.70;;;16.80;1.00;;;;;;4991569;28;20474;-66
2022/09/10 07:46:18;;;;;;;26.47;3.90;;;16.90;1.00;;;;;;4994104;28;20515;-66
2022/09/10 07:48:44;;;;;;;8.10;2.40;;;17.00;1.00;;;;;;4992764;28;20431;-66
2022/09/10 07:51:10;;;;;;;9.53;2.67;;;17.10;99.90;;;;;;4993711;28;20499;-67
2022/09/10 07:53:37;;;;;;;8.37;1.97;;;17.10;99.90;;;;;;5003354;28;20227;-66
2022/09/10 07:56:06;;;;;;;9.50;2.60;;;17.20;1.00;;;;;;5012792;28;20510;-66
2022/09/10 07:58:34;;;;;;;8.27;2.63;;;17.20;1.00;;;;;;5012143;28;20494;-66
2022/09/10 08:01:01;;;;;;;11.40;2.47;;;17.20;1.00;;;;;;5013416;28;20501;-66
2022/09/10 08:03:27;;;;;;;4.30;3.10;;;17.20;1.00;;;;;;5013108;28;20422;-66
2022/09/10 08:05:54;;;;;;;9.13;2.90;;;17.30;1.00;;;;;;5012561;28;20446;-66
2022/09/10 08:08:20;;;;;;;4.70;2.70;;;17.40;1.00;;;;;;5011892;28;20442;-67
2022/09/10 08:10:47;;;;;;;3.73;1.63;;;17.30;1.00;;;;;;5012686;28;21129;-66
2022/09/10 08:13:13;;;;;;;3.80;1.90;;;17.30;99.90;;;;;;5013897;28;20490;-66
2022/09/10 08:15:46;;;;;;;8.17;2.57;;;17.30;1.00;;;;;;5012607;28;21265;-66
2022/09/10 08:18:13;;;;;;;10.87;3.13;;;17.40;99.90;;;;;;5011612;28;20438;-66
2022/09/10 08:20:39;;;;;;;13.00;3.27;;;17.40;99.90;;;;;;5012499;28;20911;-66
2022/09/10 08:23:06;;;;;;;14.27;2.50;;;17.50;99.90;;;;;;5012417;28;20776;-66
2022/09/10 08:25:32;;;;;;;10.50;2.37;;;17.50;99.90;;;;;;5011899;28;20407;-66
2022/09/10 08:27:59;;;;;;;9.10;2.40;;;17.70;1.00;;;;;;5011746;28;20438;-66
2022/09/10 08:30:25;;;;;;;8.90;2.37;;;17.70;1.00;;;;;;4999336;28;20424;-66
2022/09/10 08:32:51;;;;;;;15.83;2.83;;;17.70;99.90;;;;;;4993066;28;20408;-66
2022/09/10 08:35:18;;;;;;;12.17;2.30;;;17.70;99.90;;;;;;4992309;28;20991;-65
2022/09/10 08:37:44;;;;;;;19.33;3.40;;;17.70;99.90;;;;;;4991835;28;20708;-66
2022/09/10 08:40:12;;;;;;;6.83;2.10;;;17.70;99.90;;;;;;4991804;28;20420;-66
2022/09/10 08:42:44;;;;;;;11.07;3.00;;;17.70;1.00;;;;;;4992479;28;20181;-64
2022/09/10 08:45:22;;;;;;;8.60;2.07;;;17.80;1.00;;;;;;4990820;28;20428;-65
2022/09/10 08:47:57;;;;;;;7.67;2.07;;;17.80;1.00;;;;;;4991816;28;20935;-65
2022/09/10 08:50:45;;;;;;;10.60;2.03;;;17.80;99.90;;;;;;4991834;28;20526;-65
2022/09/10 08:53:24;;;;;;;8.03;2.50;;;17.90;99.90;;;;;;4992585;28;20482;-66
2022/09/10 08:55:59;;;;;;;34.50;5.97;;;17.80;99.90;;;;;;4990468;28;20408;-65
2022/09/10 08:58:37;;;;;;;23.80;4.70;;;17.80;1.00;;;;;;4991295;28;20428;-65
2022/09/10 09:01:04;;;;;;;13.33;2.37;;;17.80;1.00;;;;;;4992056;28;20441;-65
2022/09/10 09:03:35;;;;;;;8.80;2.43;;;17.90;1.00;;;;;;4991776;28;20775;-65
2022/09/10 09:06:07;;;;;;;5.30;2.70;;;17.90;1.00;;;;;;4990960;28;20575;-65
2022/09/10 09:08:47;;;;;;;15.17;3.00;;;18.00;99.90;;;;;;4995062;28;20467;-65
2022/09/10 09:11:24;;;;;;;4.00;1.77;;;18.10;74.20;;;;;;4997667;28;20411;-65
2022/09/10 09:14:02;;;;;;;4.17;1.90;;;18.30;1.00;;;;;;5011156;28;20458;-65
2022/09/10 09:16:46;;;;;;;14.40;2.20;;;18.50;99.90;;;;;;5011168;28;20534;-65
2022/09/10 09:19:22;;;;;;;11.77;3.00;;;18.70;99.90;;;;;;5006387;28;20808;-65
2022/09/10 09:21:52;;;;;;;11.37;2.87;;;18.90;99.90;;;;;;4993908;28;20424;-65
2022/09/10 09:24:40;;;;;;;23.63;5.73;;;19.00;99.90;;;;;;4990790;28;20408;-65
2022/09/10 09:27:14;;;;;;;6.00;1.80;;;19.10;99.90;;;;;;4990947;28;20416;-65
2022/09/10 09:29:55;;;;;;;2.90;1.73;;;19.20;49.80;;;;;;4991026;28;20427;-65
2022/09/10 09:32:22;;;;;;;3.80;1.73;;;19.30;1.00;;;;;;4991282;28;20738;-65
2022/09/10 09:35:04;;;;;;;18.00;3.60;;;19.30;1.00;;;;;;4991262;28;20459;-65
2022/09/10 09:37:32;;;;;;;13.23;1.93;;;19.30;1.00;;;;;;4990783;28;20404;-65
2022/09/10 09:40:18;;;;;;;8.33;1.77;;;19.20;1.00;;;;;;4990244;28;20451;-65
2022/09/10 09:42:57;;;;;;;4.50;1.40;;;19.10;1.00;;;;;;4992108;28;20504;-65
2022/09/10 09:45:33;;;;;;;7.80;2.20;;;19.10;1.00;;;;;;4990587;28;20482;-65
2022/09/10 09:47:59;;;;;;;5.33;1.60;;;19.10;1.00;;;;;;4990974;28;20454;-65
2022/09/10 09:50:27;;;;;;;2.13;1.60;;;19.50;1.00;;;;;;4990733;28;20480;-65
2022/09/10 09:52:55;;;;;;;5.90;1.60;;;19.80;1.00;;;;;;4991209;28;20181;-66
2022/09/10 09:55:43;;;;;;;5.60;1.60;;;20.20;1.00;;;;;;4990463;28;20470;-65
2022/09/10 09:58:23;;;;;;;9.50;2.00;;;20.30;1.00;;;;;;4990255;28;20421;-66
2022/09/10 10:01:04;;;;;;;42.27;4.40;;;20.20;1.00;;;;;;4991096;28;20766;-66
2022/09/10 10:04:01;;;;;;;22.63;4.03;;;20.00;1.00;;;;;;5000161;28;20419;-64
2022/09/10 10:06:33;;;;;;;24.90;3.20;;;19.80;1.00;;;;;;4992226;28;20450;-66
2022/09/10 10:09:05;;;;;;;29.07;3.77;;;19.60;1.00;;;;;;4987347;28;20459;-66
2022/09/10 10:12:03;;;;;;;4.73;1.60;;;19.40;1.00;;;;;;4989632;28;20808;-64
2022/09/10 10:14:37;;;;;;;21.60;2.47;;;19.30;1.00;;;;;;4990817;28;20801;-63
2022/09/10 10:17:31;;;;;;;12.27;2.30;;;19.20;1.00;;;;;;4990656;28;20459;-63
2022/09/10 10:20:07;;;;;;;13.93;2.43;;;19.00;1.00;;;;;;4988766;28;20456;-65
2022/09/10 10:22:34;;;;;;;17.07;2.43;;;18.80;1.00;;;;;;4989536;28;20432;-65
2022/09/10 10:25:02;;;;;;;8.70;2.20;;;18.70;99.90;;;;;;4989498;28;20440;-64
2022/09/10 10:27:35;;;;;;;9.47;1.77;;;18.60;1.00;;;;;;4990667;28;20419;-65
2022/09/10 10:30:24;;;;;;;7.90;2.20;;;18.50;1.00;;;;;;4989975;28;20428;-65
2022/09/10 10:32:55;;;;;;;15.10;3.07;;;18.40;1.00;;;;;;4977425;28;20467;-64
2022/09/10 10:35:52;;;;;;;17.60;2.50;;;18.50;1.00;;;;;;4990807;28;20583;-64
2022/09/10 10:38:30;;;;;;;30.03;3.50;;;18.80;99.90;;;;;;4989857;28;20522;-64
2022/09/10 10:41:08;;;;;;;18.20;3.00;;;18.90;99.90;;;;;;4990172;28;20433;-64
2022/09/10 10:43:53;;;;;;;7.67;1.80;;;19.30;1.00;;;;;;4990580;28;20407;-65
2022/09/10 10:46:21;;;;;;;14.03;2.17;;;19.50;1.00;;;;;;4989281;28;20471;-64
2022/09/10 10:49:14;;;;;;;4.97;2.27;;;19.80;1.00;;;;;;4985698;28;20768;-65
2022/09/10 10:52:11;;;;;;;3.17;1.63;;;20.00;99.90;;;;;;4980409;28;20422;-65
2022/09/10 10:55:04;;;;;;;12.07;3.00;;;20.20;99.90;;;;;;4979813;28;20836;-65
2022/09/10 10:58:11;;;;;;;7.40;1.73;;;20.30;99.90;;;;;;4979956;28;20417;-64
2022/09/10 11:00:44;;;;;;;9.73;3.00;;;20.00;99.90;;;;;;4926976;28;20415;-64
2022/09/10 11:03:43;;;;;;;8.57;1.97;;;19.90;99.90;;;;;;4978883;28;20412;-65
2022/09/10 11:06:16;;;;;;;13.13;2.50;;;19.90;99.90;;;;;;4963682;28;20420;-63
2022/09/10 11:09:15;;;;;;;13.70;2.63;;;20.00;99.90;;;;;;4977356;28;20790;-64
2022/09/10 11:11:57;;;;;;;6.70;1.97;;;19.80;99.90;;;;;;4985834;28;20790;-65
2022/09/10 11:14:34;;;;;;;10.73;2.13;;;19.60;99.90;;;;;;4985132;28;20571;-64
2022/09/10 11:17:26;;;;;;;7.67;1.80;;;19.50;99.90;;;;;;4985600;28;20932;-64
2022/09/10 11:20:22;;;;;;;6.87;1.77;;;19.40;99.90;;;;;;4986975;28;20451;-64
2022/09/10 11:23:04;;;;;;;12.40;2.17;;;19.20;1.00;;;;;;4985403;28;20436;-64
2022/09/10 11:25:39;;;;;;;29.97;2.70;;;19.10;1.00;;;;;;4989260;28;20447;-64
2022/09/10 11:28:18;;;;;;;6.70;2.30;;;19.20;1.00;;;;;;4989208;28;21120;-64
2022/09/10 11:30:49;;;;;;;9.70;2.03;;;19.20;1.00;;;;;;4989828;28;20454;-64
2022/09/10 11:33:38;;;;;;;8.83;2.43;;;19.10;1.00;;;;;;4988528;28;21012;-63
2022/09/10 11:36:11;;;;;;;6.80;1.90;;;19.20;1.00;;;;;;4990315;28;20912;-64
2022/09/10 11:39:18;;;;;;;24.50;4.47;;;19.30;1.00;;;;;;4987409;28;20459;-64
2022/09/10 11:41:47;;;;;;;8.17;2.00;;;19.30;1.00;;;;;;4989881;28;20466;-64
2022/09/10 11:44:43;;;;;;;23.13;3.50;;;19.30;1.00;;;;;;4989021;28;20447;-64
2022/09/10 11:47:20;;;;;;;18.63;3.27;;;19.20;1.00;;;;;;4987351;28;20438;-63
2022/09/10 11:50:14;;;;;;;8.30;2.03;;;19.20;1.00;;;;;;4989658;28;20455;-64
2022/09/10 11:52:41;;;;;;;4.50;1.97;;;19.00;1.00;;;;;;4990208;28;20428;-64
2022/09/10 11:55:13;;;;;;;7.90;1.90;;;19.00;1.00;;;;;;4988471;28;20502;-64
2022/09/10 11:57:38;;;;;;;4.20;1.50;;;19.00;1.00;;;;;;4989573;28;20443;-64
2022/09/10 12:00:18;;;;;;;9.60;2.03;;;18.90;1.00;;;;;;4989765;28;20439;-64
2022/09/10 12:03:22;;;;;;;12.63;1.90;;;18.90;1.00;;;;;;4983917;28;20662;-65
2022/09/10 12:06:13;;;;;;;40.03;7.00;;;19.10;24.50;;;;;;4989447;28;20436;-65
2022/09/10 12:08:54;;;;;;;19.17;3.27;;;19.20;1.00;;;;;;4990785;28;20477;-65
2022/09/10 12:11:46;;;;;;;4.53;1.40;;;19.10;99.90;;;;;;4987394;28;21054;-65
2022/09/10 12:14:18;;;;;;;6.97;2.17;;;18.90;2.50;;;;;;4988843;28;20599;-66
2022/09/10 12:16:53;;;;;;;57.07;6.27;;;19.00;1.00;;;;;;4987677;28;20408;-66
2022/09/10 12:19:36;;;;;;;33.90;4.57;;;18.90;99.90;;;;;;4981365;28;20805;-66
2022/09/10 12:22:07;;;;;;;24.17;3.80;;;18.80;1.00;;;;;;4987057;28;20863;-66
2022/09/10 12:24:38;;;;;;;11.80;2.90;;;18.70;99.90;;;;;;4989783;28;20436;-66
2022/09/10 12:27:05;;;;;;;24.20;3.33;;;18.60;1.00;;;;;;4982450;28;20876;-66
2022/09/10 12:29:41;;;;;;;16.23;3.10;;;18.60;1.00;;;;;;4980762;28;20491;-66
2022/09/10 12:32:13;;;;;;;21.23;3.50;;;18.70;1.00;;;;;;4989749;28;20443;-66
2022/09/10 12:34:39;;;;;;;13.47;3.37;;;18.80;99.90;;;;;;5004977;28;20478;-66
2022/09/10 12:37:06;;;;;;;18.23;3.03;;;18.90;1.00;;;;;;4988623;28;20463;-65
2022/09/10 12:39:33;;;;;;;17.63;3.70;;;18.90;99.90;;;;;;4984680;28;20467;-66
2022/09/10 12:42:27;;;;;;;8.77;2.03;;;18.90;99.90;;;;;;4989246;28;20533;-66
2022/09/10 12:44:52;;;;;;;22.93;3.87;;;18.90;1.00;;;;;;4983914;28;20946;-66
2022/09/10 12:47:29;;;;;;;6.60;2.63;;;18.80;19.70;;;;;;4983107;28;20460;-66
2022/09/10 12:50:02;;;;;;;28.47;5.43;;;18.80;1.00;;;;;;4987282;28;20200;-66
2022/09/10 12:52:30;;;;;;;17.00;3.70;;;18.80;1.00;;;;;;4989432;28;20440;-66
2022/09/10 12:55:27;;;;;;;48.87;6.03;;;18.70;99.90;;;;;;4985248;28;20463;-66
2022/09/10 12:57:59;;;;;;;11.60;2.30;;;18.70;1.00;;;;;;4981569;28;20412;-66
2022/09/10 13:00:29;;;;;;;34.50;5.67;;;18.70;1.00;;;;;;4981503;28;20412;-66
2022/09/10 13:03:05;;;;;;;41.97;5.63;;;18.80;1.00;;;;;;4980121;28;20880;-66
2022/09/10 13:05:43;;;;;;;54.07;5.90;;;19.00;1.00;;;;;;4981638;28;20419;-66
2022/09/10 13:08:18;;;;;;;49.37;6.40;;;19.00;28.80;;;;;;4981367;28;20447;-66
2022/09/10 13:10:56;;;;;;;43.73;5.93;;;19.10;1.00;;;;;;4981484;28;20873;-66
2022/09/10 13:13:32;;;;;;;32.63;5.70;;;19.00;1.00;;;;;;4981292;28;20511;-65